sensor_id;sensor_type;location;lat;lon;timestamp;P1;durP1;ratioP1;P2;durP2;ratioP2
82032;SDS011;71595;52.180;4.512;2024-02-16T00:00:18;4.95;;;2.55;;
82032;SDS011;71595;52.180;4.512;2024-02-16T00:02:44;3.90;;;2.30;;
82032;SDS011;71595;52.180;4.512;2024-02-16T00:05:11;3.30;;;2.22;;
82032;SDS011;71595;52.180;4.512;2024-02-16T00:07:37;4.13;;;2.50;;
82032;SDS011;71595;52.180;4.512;2024-02-16T00:10:03;4.53;;;2.35;;
82032;SDS011;71595;52.180;4.512;2024-02-16T00:12:33;5.68;;;2.88;;
82032;SDS011;71595;52.180;4.512;2024-02-16T00:14:59;4.18;;;2.60;;
82032;SDS011;71595;52.180;4.512;2024-02-16T00:17:25;5.47;;;2.60;;
82032;SDS011;71595;52.180;4.512;2024-02-16T00:19:54;4.47;;;2.60;;
82032;SDS011;71595;52.180;4.512;2024-02-16T00:22:23;6.10;;;2.60;;
82032;SDS011;71595;52.180;4.512;2024-02-16T00:24:48;6.53;;;2.90;;
82032;SDS011;71595;52.180;4.512;2024-02-16T00:27:14;5.03;;;2.30;;
82032;SDS011;71595;52.180;4.512;2024-02-16T00:29:40;5.05;;;2.22;;
82032;SDS011;71595;52.180;4.512;2024-02-16T00:32:06;4.07;;;2.58;;
82032;SDS011;71595;52.180;4.512;2024-02-16T00:34:32;4.47;;;2.58;;
82032;SDS011;71595;52.180;4.512;2024-02-16T00:37:01;4.18;;;2.85;;
82032;SDS011;71595;52.180;4.512;2024-02-16T00:39:29;5.40;;;2.58;;
82032;SDS011;71595;52.180;4.512;2024-02-16T00:41:54;6.57;;;2.55;;
82032;SDS011;71595;52.180;4.512;2024-02-16T00:44:20;4.25;;;2.72;;
82032;SDS011;71595;52.180;4.512;2024-02-16T00:46:45;5.65;;;2.67;;
82032;SDS011;71595;52.180;4.512;2024-02-16T00:49:10;5.35;;;2.75;;
82032;SDS011;71595;52.180;4.512;2024-02-16T00:51:39;4.88;;;2.63;;
82032;SDS011;71595;52.180;4.512;2024-02-16T00:54:05;6.85;;;2.78;;
82032;SDS011;71595;52.180;4.512;2024-02-16T00:56:31;7.10;;;2.80;;
82032;SDS011;71595;52.180;4.512;2024-02-16T00:58:57;5.82;;;2.65;;
82032;SDS011;71595;52.180;4.512;2024-02-16T01:01:22;4.32;;;2.60;;
82032;SDS011;71595;52.180;4.512;2024-02-16T01:03:49;7.45;;;2.83;;
82032;SDS011;71595;52.180;4.512;2024-02-16T01:06:17;4.40;;;2.55;;
82032;SDS011;71595;52.180;4.512;2024-02-16T01:08:42;5.07;;;2.63;;
82032;SDS011;71595;52.180;4.512;2024-02-16T01:11:08;5.22;;;2.40;;
82032;SDS011;71595;52.180;4.512;2024-02-16T01:13:33;5.35;;;2.55;;
82032;SDS011;71595;52.180;4.512;2024-02-16T01:15:59;4.30;;;2.42;;
82032;SDS011;71595;52.180;4.512;2024-02-16T01:18:25;4.97;;;2.58;;
82032;SDS011;71595;52.180;4.512;2024-02-16T01:20:53;3.63;;;2.50;;
82032;SDS011;71595;52.180;4.512;2024-02-16T01:23:19;5.82;;;2.83;;
82032;SDS011;71595;52.180;4.512;2024-02-16T01:25:45;6.43;;;2.45;;
82032;SDS011;71595;52.180;4.512;2024-02-16T01:28:11;6.18;;;2.50;;
82032;SDS011;71595;52.180;4.512;2024-02-16T01:30:37;5.00;;;2.42;;
82032;SDS011;71595;52.180;4.512;2024-02-16T01:33:03;5.40;;;2.60;;
82032;SDS011;71595;52.180;4.512;2024-02-16T01:35:30;5.40;;;2.35;;
82032;SDS011;71595;52.180;4.512;2024-02-16T01:37:55;5.93;;;2.83;;
82032;SDS011;71595;52.180;4.512;2024-02-16T01:40:20;5.00;;;2.60;;
82032;SDS011;71595;52.180;4.512;2024-02-16T01:42:49;4.78;;;3.03;;
82032;SDS011;71595;52.180;4.512;2024-02-16T01:45:14;5.28;;;2.67;;
82032;SDS011;71595;52.180;4.512;2024-02-16T01:47:41;4.70;;;2.97;;
82032;SDS011;71595;52.180;4.512;2024-02-16T01:50:09;4.55;;;2.35;;
82032;SDS011;71595;52.180;4.512;2024-02-16T01:52:35;4.82;;;2.70;;
82032;SDS011;71595;52.180;4.512;2024-02-16T01:55:02;4.70;;;2.83;;
82032;SDS011;71595;52.180;4.512;2024-02-16T01:57:35;5.00;;;3.05;;
82032;SDS011;71595;52.180;4.512;2024-02-16T02:00:10;4.50;;;2.50;;
82032;SDS011;71595;52.180;4.512;2024-02-16T02:02:37;5.40;;;3.05;;
82032;SDS011;71595;52.180;4.512;2024-02-16T02:05:02;4.50;;;2.50;;
82032;SDS011;71595;52.180;4.512;2024-02-16T02:07:28;6.82;;;2.88;;
82032;SDS011;71595;52.180;4.512;2024-02-16T02:09:54;6.13;;;2.83;;
82032;SDS011;71595;52.180;4.512;2024-02-16T02:12:20;7.22;;;2.83;;
82032;SDS011;71595;52.180;4.512;2024-02-16T02:14:46;4.13;;;2.90;;
82032;SDS011;71595;52.180;4.512;2024-02-16T02:17:12;4.40;;;2.70;;
82032;SDS011;71595;52.180;4.512;2024-02-16T02:19:37;5.28;;;3.10;;
82032;SDS011;71595;52.180;4.512;2024-02-16T02:22:03;5.13;;;3.35;;
82032;SDS011;71595;52.180;4.512;2024-02-16T02:24:35;6.60;;;2.83;;
82032;SDS011;71595;52.180;4.512;2024-02-16T02:27:01;4.68;;;2.67;;
82032;SDS011;71595;52.180;4.512;2024-02-16T02:29:27;4.65;;;2.97;;
82032;SDS011;71595;52.180;4.512;2024-02-16T02:31:53;5.15;;;2.95;;
82032;SDS011;71595;52.180;4.512;2024-02-16T02:34:18;4.88;;;3.05;;
82032;SDS011;71595;52.180;4.512;2024-02-16T02:36:45;5.63;;;2.80;;
82032;SDS011;71595;52.180;4.512;2024-02-16T02:39:11;5.40;;;3.03;;
82032;SDS011;71595;52.180;4.512;2024-02-16T02:41:38;7.18;;;2.90;;
82032;SDS011;71595;52.180;4.512;2024-02-16T02:44:04;5.30;;;3.17;;
82032;SDS011;71595;52.180;4.512;2024-02-16T02:46:30;6.55;;;3.15;;
82032;SDS011;71595;52.180;4.512;2024-02-16T02:48:56;5.90;;;2.75;;
82032;SDS011;71595;52.180;4.512;2024-02-16T02:51:21;5.38;;;3.30;;
82032;SDS011;71595;52.180;4.512;2024-02-16T02:53:46;6.32;;;2.88;;
82032;SDS011;71595;52.180;4.512;2024-02-16T02:56:12;5.13;;;2.95;;
82032;SDS011;71595;52.180;4.512;2024-02-16T02:58:40;5.32;;;3.10;;
82032;SDS011;71595;52.180;4.512;2024-02-16T03:01:05;6.68;;;3.28;;
82032;SDS011;71595;52.180;4.512;2024-02-16T03:03:33;5.50;;;2.80;;
82032;SDS011;71595;52.180;4.512;2024-02-16T03:05:58;4.47;;;2.72;;
82032;SDS011;71595;52.180;4.512;2024-02-16T03:08:24;6.45;;;3.08;;
82032;SDS011;71595;52.180;4.512;2024-02-16T03:10:50;5.55;;;2.83;;
82032;SDS011;71595;52.180;4.512;2024-02-16T03:13:15;7.03;;;3.15;;
82032;SDS011;71595;52.180;4.512;2024-02-16T03:15:43;7.88;;;3.10;;
82032;SDS011;71595;52.180;4.512;2024-02-16T03:18:09;7.22;;;3.20;;
82032;SDS011;71595;52.180;4.512;2024-02-16T03:20:34;4.90;;;2.65;;
82032;SDS011;71595;52.180;4.512;2024-02-16T03:23:00;5.55;;;3.15;;
82032;SDS011;71595;52.180;4.512;2024-02-16T03:25:26;5.40;;;3.10;;
82032;SDS011;71595;52.180;4.512;2024-02-16T03:27:52;7.10;;;3.40;;
82032;SDS011;71595;52.180;4.512;2024-02-16T03:30:20;5.00;;;3.10;;
82032;SDS011;71595;52.180;4.512;2024-02-16T03:32:48;4.45;;;2.95;;
82032;SDS011;71595;52.180;4.512;2024-02-16T03:35:14;7.35;;;3.05;;
82032;SDS011;71595;52.180;4.512;2024-02-16T03:37:40;4.78;;;3.03;;
82032;SDS011;71595;52.180;4.512;2024-02-16T03:40:07;5.18;;;3.10;;
82032;SDS011;71595;52.180;4.512;2024-02-16T03:42:33;5.25;;;3.03;;
82032;SDS011;71595;52.180;4.512;2024-02-16T03:44:59;4.70;;;2.85;;
82032;SDS011;71595;52.180;4.512;2024-02-16T03:47:24;6.35;;;3.38;;
82032;SDS011;71595;52.180;4.512;2024-02-16T03:49:50;6.25;;;2.83;;
82032;SDS011;71595;52.180;4.512;2024-02-16T03:52:15;6.45;;;3.30;;
82032;SDS011;71595;52.180;4.512;2024-02-16T03:54:40;5.45;;;3.13;;
82032;SDS011;71595;52.180;4.512;2024-02-16T03:57:08;5.40;;;3.00;;
82032;SDS011;71595;52.180;4.512;2024-02-16T03:59:36;5.35;;;3.00;;
82032;SDS011;71595;52.180;4.512;2024-02-16T04:02:02;4.63;;;2.63;;
82032;SDS011;71595;52.180;4.512;2024-02-16T04:04:27;6.80;;;3.22;;
82032;SDS011;71595;52.180;4.512;2024-02-16T04:06:53;4.78;;;3.33;;
82032;SDS011;71595;52.180;4.512;2024-02-16T04:09:18;4.32;;;2.65;;
82032;SDS011;71595;52.180;4.512;2024-02-16T04:11:44;4.22;;;2.85;;
82032;SDS011;71595;52.180;4.512;2024-02-16T04:14:11;5.72;;;2.90;;
82032;SDS011;71595;52.180;4.512;2024-02-16T04:16:36;6.38;;;3.20;;
82032;SDS011;71595;52.180;4.512;2024-02-16T04:19:02;4.50;;;2.75;;
82032;SDS011;71595;52.180;4.512;2024-02-16T04:21:27;6.68;;;3.28;;
82032;SDS011;71595;52.180;4.512;2024-02-16T04:23:52;7.32;;;3.10;;
82032;SDS011;71595;52.180;4.512;2024-02-16T04:26:18;5.47;;;2.83;;
82032;SDS011;71595;52.180;4.512;2024-02-16T04:28:43;6.15;;;3.25;;
82032;SDS011;71595;52.180;4.512;2024-02-16T04:31:09;4.47;;;3.00;;
82032;SDS011;71595;52.180;4.512;2024-02-16T04:33:34;6.70;;;2.88;;
82032;SDS011;71595;52.180;4.512;2024-02-16T04:35:59;9.38;;;3.05;;
82032;SDS011;71595;52.180;4.512;2024-02-16T04:38:25;6.13;;;3.10;;
82032;SDS011;71595;52.180;4.512;2024-02-16T04:40:50;4.82;;;2.90;;
82032;SDS011;71595;52.180;4.512;2024-02-16T04:43:15;7.97;;;3.58;;
82032;SDS011;71595;52.180;4.512;2024-02-16T04:45:41;4.78;;;2.90;;
82032;SDS011;71595;52.180;4.512;2024-02-16T04:48:07;5.13;;;2.90;;
82032;SDS011;71595;52.180;4.512;2024-02-16T04:50:34;4.78;;;2.63;;
82032;SDS011;71595;52.180;4.512;2024-02-16T04:53:00;6.30;;;3.13;;
82032;SDS011;71595;52.180;4.512;2024-02-16T04:55:28;6.13;;;3.17;;
82032;SDS011;71595;52.180;4.512;2024-02-16T04:57:55;7.30;;;3.50;;
82032;SDS011;71595;52.180;4.512;2024-02-16T05:00:20;5.15;;;3.08;;
82032;SDS011;71595;52.180;4.512;2024-02-16T05:02:46;7.65;;;3.20;;
82032;SDS011;71595;52.180;4.512;2024-02-16T05:05:12;4.22;;;2.83;;
82032;SDS011;71595;52.180;4.512;2024-02-16T05:07:37;5.15;;;3.10;;
82032;SDS011;71595;52.180;4.512;2024-02-16T05:10:03;6.78;;;3.15;;
82032;SDS011;71595;52.180;4.512;2024-02-16T05:12:28;4.93;;;2.75;;
82032;SDS011;71595;52.180;4.512;2024-02-16T05:14:54;7.05;;;3.45;;
82032;SDS011;71595;52.180;4.512;2024-02-16T05:17:20;6.65;;;3.00;;
82032;SDS011;71595;52.180;4.512;2024-02-16T05:19:47;7.28;;;3.42;;
82032;SDS011;71595;52.180;4.512;2024-02-16T05:22:12;8.23;;;3.70;;
82032;SDS011;71595;52.180;4.512;2024-02-16T05:24:39;6.82;;;3.15;;
82032;SDS011;71595;52.180;4.512;2024-02-16T05:27:04;6.78;;;3.33;;
82032;SDS011;71595;52.180;4.512;2024-02-16T05:29:30;6.63;;;3.40;;
82032;SDS011;71595;52.180;4.512;2024-02-16T05:31:55;4.82;;;3.08;;
82032;SDS011;71595;52.180;4.512;2024-02-16T05:34:20;4.68;;;3.03;;
82032;SDS011;71595;52.180;4.512;2024-02-16T05:36:46;7.10;;;3.00;;
82032;SDS011;71595;52.180;4.512;2024-02-16T05:39:11;4.80;;;3.15;;
82032;SDS011;71595;52.180;4.512;2024-02-16T05:41:51;5.78;;;3.58;;
82032;SDS011;71595;52.180;4.512;2024-02-16T05:44:16;8.00;;;3.38;;
82032;SDS011;71595;52.180;4.512;2024-02-16T05:46:42;7.63;;;3.20;;
82032;SDS011;71595;52.180;4.512;2024-02-16T05:49:09;4.80;;;2.95;;
82032;SDS011;71595;52.180;4.512;2024-02-16T05:51:35;7.03;;;3.42;;
82032;SDS011;71595;52.180;4.512;2024-02-16T05:54:21;6.18;;;2.92;;
82032;SDS011;71595;52.180;4.512;2024-02-16T05:56:47;6.03;;;3.30;;
82032;SDS011;71595;52.180;4.512;2024-02-16T05:59:14;6.95;;;3.10;;
82032;SDS011;71595;52.180;4.512;2024-02-16T06:01:39;6.10;;;3.10;;
82032;SDS011;71595;52.180;4.512;2024-02-16T06:04:04;6.43;;;3.10;;
82032;SDS011;71595;52.180;4.512;2024-02-16T06:06:30;6.63;;;3.35;;
82032;SDS011;71595;52.180;4.512;2024-02-16T06:08:55;5.03;;;3.17;;
82032;SDS011;71595;52.180;4.512;2024-02-16T06:11:20;8.63;;;3.75;;
82032;SDS011;71595;52.180;4.512;2024-02-16T06:13:46;5.25;;;3.28;;
82032;SDS011;71595;52.180;4.512;2024-02-16T06:16:11;6.10;;;3.30;;
82032;SDS011;71595;52.180;4.512;2024-02-16T06:18:36;9.38;;;3.67;;
82032;SDS011;71595;52.180;4.512;2024-02-16T06:21:02;6.75;;;3.38;;
82032;SDS011;71595;52.180;4.512;2024-02-16T06:23:27;5.50;;;3.40;;
82032;SDS011;71595;52.180;4.512;2024-02-16T06:25:53;7.57;;;3.83;;
82032;SDS011;71595;52.180;4.512;2024-02-16T06:28:18;6.30;;;3.53;;
82032;SDS011;71595;52.180;4.512;2024-02-16T06:30:43;7.43;;;3.38;;
82032;SDS011;71595;52.180;4.512;2024-02-16T06:33:09;7.03;;;3.60;;
82032;SDS011;71595;52.180;4.512;2024-02-16T06:35:35;6.38;;;3.38;;
82032;SDS011;71595;52.180;4.512;2024-02-16T06:38:00;6.55;;;3.58;;
82032;SDS011;71595;52.180;4.512;2024-02-16T06:40:25;5.90;;;3.70;;
82032;SDS011;71595;52.180;4.512;2024-02-16T06:42:51;6.38;;;3.40;;
82032;SDS011;71595;52.180;4.512;2024-02-16T06:45:17;5.72;;;3.17;;
82032;SDS011;71595;52.180;4.512;2024-02-16T06:47:43;9.13;;;3.95;;
82032;SDS011;71595;52.180;4.512;2024-02-16T06:50:10;5.40;;;3.25;;
82032;SDS011;71595;52.180;4.512;2024-02-16T06:52:35;5.25;;;3.28;;
82032;SDS011;71595;52.180;4.512;2024-02-16T06:55:01;7.20;;;4.10;;
82032;SDS011;71595;52.180;4.512;2024-02-16T06:57:26;5.90;;;3.20;;
82032;SDS011;71595;52.180;4.512;2024-02-16T06:59:52;7.82;;;3.72;;
82032;SDS011;71595;52.180;4.512;2024-02-16T07:02:18;7.35;;;3.35;;
82032;SDS011;71595;52.180;4.512;2024-02-16T07:04:43;6.07;;;3.50;;
82032;SDS011;71595;52.180;4.512;2024-02-16T07:07:10;5.30;;;3.10;;
82032;SDS011;71595;52.180;4.512;2024-02-16T07:09:36;5.95;;;3.47;;
82032;SDS011;71595;52.180;4.512;2024-02-16T07:12:02;5.80;;;3.45;;
82032;SDS011;71595;52.180;4.512;2024-02-16T07:14:27;7.60;;;4.03;;
82032;SDS011;71595;52.180;4.512;2024-02-16T07:16:53;6.32;;;3.58;;
82032;SDS011;71595;52.180;4.512;2024-02-16T07:19:18;5.25;;;3.40;;
82032;SDS011;71595;52.180;4.512;2024-02-16T07:21:44;5.15;;;3.13;;
82032;SDS011;71595;52.180;4.512;2024-02-16T07:24:09;5.80;;;3.20;;
82032;SDS011;71595;52.180;4.512;2024-02-16T07:26:35;6.03;;;3.33;;
82032;SDS011;71595;52.180;4.512;2024-02-16T07:29:01;6.93;;;4.45;;
82032;SDS011;71595;52.180;4.512;2024-02-16T07:31:31;6.93;;;3.90;;
82032;SDS011;71595;52.180;4.512;2024-02-16T07:33:58;6.07;;;4.00;;
82032;SDS011;71595;52.180;4.512;2024-02-16T07:36:23;7.10;;;3.65;;
82032;SDS011;71595;52.180;4.512;2024-02-16T07:38:48;4.93;;;3.20;;
82032;SDS011;71595;52.180;4.512;2024-02-16T07:41:14;4.90;;;3.10;;
82032;SDS011;71595;52.180;4.512;2024-02-16T07:43:39;7.85;;;4.13;;
82032;SDS011;71595;52.180;4.512;2024-02-16T07:46:05;6.80;;;4.18;;
82032;SDS011;71595;52.180;4.512;2024-02-16T07:48:30;8.27;;;3.55;;
82032;SDS011;71595;52.180;4.512;2024-02-16T07:51:02;5.95;;;3.40;;
82032;SDS011;71595;52.180;4.512;2024-02-16T07:55:56;6.22;;;3.67;;
82032;SDS011;71595;52.180;4.512;2024-02-16T07:58:23;6.60;;;3.50;;
82032;SDS011;71595;52.180;4.512;2024-02-16T08:00:48;8.43;;;3.67;;
82032;SDS011;71595;52.180;4.512;2024-02-16T08:03:15;5.45;;;3.38;;
82032;SDS011;71595;52.180;4.512;2024-02-16T08:05:41;6.78;;;3.25;;
82032;SDS011;71595;52.180;4.512;2024-02-16T08:08:06;6.60;;;3.90;;
82032;SDS011;71595;52.180;4.512;2024-02-16T08:10:31;8.52;;;3.53;;
82032;SDS011;71595;52.180;4.512;2024-02-16T08:12:57;10.80;;;4.25;;
82032;SDS011;71595;52.180;4.512;2024-02-16T08:15:22;7.15;;;3.20;;
82032;SDS011;71595;52.180;4.512;2024-02-16T08:17:48;8.82;;;3.50;;
82032;SDS011;71595;52.180;4.512;2024-02-16T08:20:15;6.97;;;4.20;;
82032;SDS011;71595;52.180;4.512;2024-02-16T08:22:41;8.95;;;3.72;;
82032;SDS011;71595;52.180;4.512;2024-02-16T08:25:06;5.80;;;3.85;;
82032;SDS011;71595;52.180;4.512;2024-02-16T08:27:32;6.68;;;3.42;;
82032;SDS011;71595;52.180;4.512;2024-02-16T08:29:58;6.38;;;3.28;;
82032;SDS011;71595;52.180;4.512;2024-02-16T08:32:24;6.03;;;3.47;;
82032;SDS011;71595;52.180;4.512;2024-02-16T08:34:49;6.18;;;3.35;;
82032;SDS011;71595;52.180;4.512;2024-02-16T08:37:15;9.02;;;3.70;;
82032;SDS011;71595;52.180;4.512;2024-02-16T08:39:41;7.50;;;4.00;;
82032;SDS011;71595;52.180;4.512;2024-02-16T08:42:06;8.68;;;4.07;;
82032;SDS011;71595;52.180;4.512;2024-02-16T08:44:34;17.30;;;4.88;;
82032;SDS011;71595;52.180;4.512;2024-02-16T08:46:59;7.20;;;3.92;;
82032;SDS011;71595;52.180;4.512;2024-02-16T08:49:25;7.00;;;3.63;;
82032;SDS011;71595;52.180;4.512;2024-02-16T08:51:50;5.47;;;3.53;;
82032;SDS011;71595;52.180;4.512;2024-02-16T08:54:15;8.55;;;4.30;;
82032;SDS011;71595;52.180;4.512;2024-02-16T08:56:43;7.90;;;4.03;;
82032;SDS011;71595;52.180;4.512;2024-02-16T08:59:10;8.77;;;4.07;;
82032;SDS011;71595;52.180;4.512;2024-02-16T09:01:36;5.65;;;3.58;;
82032;SDS011;71595;52.180;4.512;2024-02-16T09:04:02;8.30;;;4.65;;
82032;SDS011;71595;52.180;4.512;2024-02-16T09:06:28;8.25;;;4.55;;
82032;SDS011;71595;52.180;4.512;2024-02-16T09:08:54;8.32;;;4.30;;
82032;SDS011;71595;52.180;4.512;2024-02-16T09:11:20;12.73;;;5.85;;
82032;SDS011;71595;52.180;4.512;2024-02-16T09:13:45;10.80;;;5.07;;
82032;SDS011;71595;52.180;4.512;2024-02-16T09:16:11;17.95;;;5.43;;
82032;SDS011;71595;52.180;4.512;2024-02-16T09:18:40;16.52;;;7.13;;
82032;SDS011;71595;52.180;4.512;2024-02-16T09:21:14;18.52;;;6.82;;
82032;SDS011;71595;52.180;4.512;2024-02-16T09:23:40;18.00;;;7.88;;
82032;SDS011;71595;52.180;4.512;2024-02-16T09:26:05;18.65;;;7.30;;
82032;SDS011;71595;52.180;4.512;2024-02-16T09:28:31;19.00;;;7.05;;
82032;SDS011;71595;52.180;4.512;2024-02-16T09:30:57;18.98;;;7.47;;
82032;SDS011;71595;52.180;4.512;2024-02-16T09:33:23;19.92;;;8.02;;
82032;SDS011;71595;52.180;4.512;2024-02-16T09:35:52;22.15;;;7.18;;
82032;SDS011;71595;52.180;4.512;2024-02-16T09:38:18;25.35;;;7.82;;
82032;SDS011;71595;52.180;4.512;2024-02-16T09:40:44;20.58;;;7.82;;
82032;SDS011;71595;52.180;4.512;2024-02-16T09:43:09;22.42;;;8.45;;
82032;SDS011;71595;52.180;4.512;2024-02-16T09:45:35;19.10;;;7.93;;
82032;SDS011;71595;52.180;4.512;2024-02-16T09:48:01;18.77;;;7.68;;
82032;SDS011;71595;52.180;4.512;2024-02-16T09:50:30;19.70;;;7.40;;
82032;SDS011;71595;52.180;4.512;2024-02-16T09:52:56;22.77;;;7.68;;
82032;SDS011;71595;52.180;4.512;2024-02-16T09:55:22;18.08;;;7.32;;
82032;SDS011;71595;52.180;4.512;2024-02-16T09:57:57;18.02;;;6.78;;
82032;SDS011;71595;52.180;4.512;2024-02-16T10:00:24;15.90;;;5.68;;
82032;SDS011;71595;52.180;4.512;2024-02-16T10:02:49;16.23;;;6.85;;
82032;SDS011;71595;52.180;4.512;2024-02-16T10:05:15;17.73;;;6.95;;
82032;SDS011;71595;52.180;4.512;2024-02-16T10:07:45;12.85;;;5.28;;
82032;SDS011;71595;52.180;4.512;2024-02-16T10:10:23;12.63;;;5.35;;
82032;SDS011;71595;52.180;4.512;2024-02-16T10:12:50;9.75;;;4.90;;
82032;SDS011;71595;52.180;4.512;2024-02-16T10:15:25;8.70;;;4.63;;
82032;SDS011;71595;52.180;4.512;2024-02-16T10:18:00;10.80;;;4.20;;
82032;SDS011;71595;52.180;4.512;2024-02-16T10:20:27;10.05;;;4.53;;
82032;SDS011;71595;52.180;4.512;2024-02-16T10:23:02;8.75;;;4.50;;
82032;SDS011;71595;52.180;4.512;2024-02-16T10:25:38;11.93;;;5.25;;
82032;SDS011;71595;52.180;4.512;2024-02-16T10:28:08;11.00;;;4.72;;
82032;SDS011;71595;52.180;4.512;2024-02-16T10:30:39;11.45;;;4.93;;
82032;SDS011;71595;52.180;4.512;2024-02-16T10:33:08;10.30;;;5.57;;
82032;SDS011;71595;52.180;4.512;2024-02-16T10:35:34;10.52;;;5.13;;
82032;SDS011;71595;52.180;4.512;2024-02-16T10:38:01;8.95;;;5.30;;
82032;SDS011;71595;52.180;4.512;2024-02-16T10:40:40;10.18;;;4.57;;
82032;SDS011;71595;52.180;4.512;2024-02-16T10:43:07;10.25;;;5.00;;
82032;SDS011;71595;52.180;4.512;2024-02-16T10:45:34;14.63;;;5.20;;
82032;SDS011;71595;52.180;4.512;2024-02-16T10:48:01;8.07;;;4.25;;
82032;SDS011;71595;52.180;4.512;2024-02-16T10:50:28;8.40;;;4.85;;
82032;SDS011;71595;52.180;4.512;2024-02-16T10:52:55;9.40;;;5.00;;
82032;SDS011;71595;52.180;4.512;2024-02-16T10:55:23;10.32;;;4.60;;
82032;SDS011;71595;52.180;4.512;2024-02-16T10:57:49;10.55;;;4.47;;
82032;SDS011;71595;52.180;4.512;2024-02-16T11:00:15;8.82;;;4.50;;
82032;SDS011;71595;52.180;4.512;2024-02-16T11:02:52;11.65;;;5.05;;
82032;SDS011;71595;52.180;4.512;2024-02-16T11:05:36;9.18;;;4.63;;
82032;SDS011;71595;52.180;4.512;2024-02-16T11:08:11;10.32;;;4.20;;
82032;SDS011;71595;52.180;4.512;2024-02-16T11:10:38;10.48;;;3.97;;
82032;SDS011;71595;52.180;4.512;2024-02-16T11:13:04;7.43;;;4.07;;
82032;SDS011;71595;52.180;4.512;2024-02-16T11:15:30;8.05;;;3.28;;
82032;SDS011;71595;52.180;4.512;2024-02-16T11:17:57;4.97;;;3.03;;
82032;SDS011;71595;52.180;4.512;2024-02-16T11:20:25;8.35;;;2.90;;
82032;SDS011;71595;52.180;4.512;2024-02-16T11:22:53;7.35;;;3.28;;
82032;SDS011;71595;52.180;4.512;2024-02-16T11:25:32;6.03;;;3.28;;
82032;SDS011;71595;52.180;4.512;2024-02-16T11:27:59;5.75;;;2.92;;
82032;SDS011;71595;52.180;4.512;2024-02-16T11:30:24;7.80;;;3.40;;
82032;SDS011;71595;52.180;4.512;2024-02-16T11:32:50;8.55;;;2.67;;
82032;SDS011;71595;52.180;4.512;2024-02-16T11:35:16;8.60;;;3.20;;
82032;SDS011;71595;52.180;4.512;2024-02-16T11:37:42;11.20;;;4.40;;
82032;SDS011;71595;52.180;4.512;2024-02-16T11:40:07;9.35;;;3.38;;
82032;SDS011;71595;52.180;4.512;2024-02-16T11:42:37;7.18;;;2.85;;
82032;SDS011;71595;52.180;4.512;2024-02-16T11:45:02;5.07;;;2.78;;
82032;SDS011;71595;52.180;4.512;2024-02-16T11:47:28;12.05;;;3.58;;
82032;SDS011;71595;52.180;4.512;2024-02-16T11:50:06;5.75;;;2.60;;
82032;SDS011;71595;52.180;4.512;2024-02-16T11:52:36;6.28;;;2.70;;
82032;SDS011;71595;52.180;4.512;2024-02-16T11:55:07;9.68;;;2.63;;
82032;SDS011;71595;52.180;4.512;2024-02-16T11:57:33;7.03;;;2.83;;
82032;SDS011;71595;52.180;4.512;2024-02-16T12:00:00;9.10;;;3.10;;
82032;SDS011;71595;52.180;4.512;2024-02-16T12:02:32;8.80;;;2.70;;
82032;SDS011;71595;52.180;4.512;2024-02-16T12:04:57;10.38;;;3.00;;
82032;SDS011;71595;52.180;4.512;2024-02-16T12:07:27;9.57;;;2.92;;
82032;SDS011;71595;52.180;4.512;2024-02-16T12:09:56;6.13;;;2.80;;
82032;SDS011;71595;52.180;4.512;2024-02-16T12:12:23;5.85;;;2.40;;
82032;SDS011;71595;52.180;4.512;2024-02-16T12:14:49;7.65;;;2.78;;
82032;SDS011;71595;52.180;4.512;2024-02-16T12:17:14;10.18;;;2.80;;
82032;SDS011;71595;52.180;4.512;2024-02-16T12:19:43;6.82;;;3.13;;
82032;SDS011;71595;52.180;4.512;2024-02-16T12:22:10;8.82;;;3.50;;
82032;SDS011;71595;52.180;4.512;2024-02-16T12:24:35;8.38;;;2.83;;
82032;SDS011;71595;52.180;4.512;2024-02-16T12:27:01;7.97;;;2.97;;
82032;SDS011;71595;52.180;4.512;2024-02-16T12:29:26;9.15;;;2.88;;
82032;SDS011;71595;52.180;4.512;2024-02-16T12:31:51;8.77;;;3.88;;
82032;SDS011;71595;52.180;4.512;2024-02-16T12:34:17;8.35;;;3.33;;
82032;SDS011;71595;52.180;4.512;2024-02-16T12:36:42;6.50;;;2.60;;
82032;SDS011;71595;52.180;4.512;2024-02-16T12:39:08;9.18;;;3.03;;
82032;SDS011;71595;52.180;4.512;2024-02-16T12:41:39;10.02;;;2.97;;
82032;SDS011;71595;52.180;4.512;2024-02-16T12:44:08;9.30;;;3.10;;
82032;SDS011;71595;52.180;4.512;2024-02-16T12:46:34;7.75;;;3.60;;
82032;SDS011;71595;52.180;4.512;2024-02-16T12:49:00;7.47;;;3.03;;
82032;SDS011;71595;52.180;4.512;2024-02-16T12:51:25;5.57;;;3.42;;
82032;SDS011;71595;52.180;4.512;2024-02-16T12:53:50;10.60;;;3.60;;
82032;SDS011;71595;52.180;4.512;2024-02-16T12:56:16;10.70;;;3.70;;
82032;SDS011;71595;52.180;4.512;2024-02-16T12:58:41;8.25;;;3.50;;
82032;SDS011;71595;52.180;4.512;2024-02-16T13:01:07;7.15;;;3.45;;
82032;SDS011;71595;52.180;4.512;2024-02-16T13:03:36;11.93;;;3.40;;
82032;SDS011;71595;52.180;4.512;2024-02-16T13:06:02;9.50;;;3.33;;
82032;SDS011;71595;52.180;4.512;2024-02-16T13:08:29;6.95;;;3.15;;
82032;SDS011;71595;52.180;4.512;2024-02-16T13:10:55;6.95;;;3.03;;
82032;SDS011;71595;52.180;4.512;2024-02-16T13:13:21;7.00;;;3.30;;
82032;SDS011;71595;52.180;4.512;2024-02-16T13:15:47;7.72;;;3.38;;
82032;SDS011;71595;52.180;4.512;2024-02-16T13:18:13;7.00;;;3.50;;
82032;SDS011;71595;52.180;4.512;2024-02-16T13:20:39;4.78;;;3.08;;
82032;SDS011;71595;52.180;4.512;2024-02-16T13:23:04;6.40;;;3.03;;
82032;SDS011;71595;52.180;4.512;2024-02-16T13:25:30;7.07;;;3.25;;
82032;SDS011;71595;52.180;4.512;2024-02-16T13:27:55;6.57;;;3.55;;
82032;SDS011;71595;52.180;4.512;2024-02-16T13:30:21;8.27;;;3.60;;
82032;SDS011;71595;52.180;4.512;2024-02-16T13:32:46;5.95;;;3.42;;
82032;SDS011;71595;52.180;4.512;2024-02-16T13:35:11;6.70;;;3.63;;
82032;SDS011;71595;52.180;4.512;2024-02-16T13:37:38;7.45;;;3.63;;
82032;SDS011;71595;52.180;4.512;2024-02-16T13:40:06;7.25;;;3.28;;
82032;SDS011;71595;52.180;4.512;2024-02-16T13:42:35;7.85;;;3.63;;
82032;SDS011;71595;52.180;4.512;2024-02-16T13:45:01;8.27;;;3.95;;
82032;SDS011;71595;52.180;4.512;2024-02-16T13:47:26;8.10;;;3.28;;
82032;SDS011;71595;52.180;4.512;2024-02-16T13:49:52;7.68;;;3.63;;
82032;SDS011;71595;52.180;4.512;2024-02-16T13:52:17;7.05;;;3.67;;
82032;SDS011;71595;52.180;4.512;2024-02-16T13:54:43;7.70;;;3.28;;
82032;SDS011;71595;52.180;4.512;2024-02-16T13:57:08;9.30;;;3.40;;
82032;SDS011;71595;52.180;4.512;2024-02-16T13:59:40;6.28;;;3.22;;
82032;SDS011;71595;52.180;4.512;2024-02-16T14:02:06;7.50;;;2.92;;
82032;SDS011;71595;52.180;4.512;2024-02-16T14:04:32;8.48;;;2.97;;
82032;SDS011;71595;52.180;4.512;2024-02-16T14:06:58;6.30;;;3.47;;
82032;SDS011;71595;52.180;4.512;2024-02-16T14:09:23;7.45;;;3.47;;
82032;SDS011;71595;52.180;4.512;2024-02-16T14:11:49;6.03;;;3.40;;
82032;SDS011;71595;52.180;4.512;2024-02-16T14:14:14;6.70;;;3.55;;
82032;SDS011;71595;52.180;4.512;2024-02-16T14:16:40;7.57;;;3.45;;
82032;SDS011;71595;52.180;4.512;2024-02-16T14:19:06;9.75;;;4.00;;
82032;SDS011;71595;52.180;4.512;2024-02-16T14:21:31;6.80;;;3.60;;
82032;SDS011;71595;52.180;4.512;2024-02-16T14:23:57;8.35;;;3.83;;
82032;SDS011;71595;52.180;4.512;2024-02-16T14:26:23;7.30;;;3.30;;
82032;SDS011;71595;52.180;4.512;2024-02-16T14:28:49;7.82;;;4.00;;
82032;SDS011;71595;52.180;4.512;2024-02-16T14:31:14;9.73;;;3.50;;
82032;SDS011;71595;52.180;4.512;2024-02-16T14:33:41;6.80;;;3.15;;
82032;SDS011;71595;52.180;4.512;2024-02-16T14:36:08;6.63;;;2.95;;
82032;SDS011;71595;52.180;4.512;2024-02-16T14:38:34;6.55;;;3.33;;
82032;SDS011;71595;52.180;4.512;2024-02-16T14:41:00;7.10;;;3.25;;
82032;SDS011;71595;52.180;4.512;2024-02-16T14:43:29;6.50;;;2.88;;